sensor_id;sensor_type;location;lat;lon;timestamp;pressure;altitude;pressure_sealevel;temperature;humidity
59825;BME280;45703;50.898;6.054;2024-01-10T00:00:08;101348.31;;;-7.29;84.96
59825;BME280;45703;50.898;6.054;2024-01-10T00:02:34;101347.81;;;-7.20;84.96
59825;BME280;45703;50.898;6.054;2024-01-10T00:04:59;101349.66;;;-7.22;84.11
59825;BME280;45703;50.898;6.054;2024-01-10T00:07:25;101347.66;;;-7.17;85.21
59825;BME280;45703;50.898;6.054;2024-01-10T00:09:50;101350.50;;;-7.06;85.50
59825;BME280;45703;50.898;6.054;2024-01-10T00:12:15;101343.00;;;-7.10;85.05
59825;BME280;45703;50.898;6.054;2024-01-10T00:14:41;101347.84;;;-7.04;83.87
59825;BME280;45703;50.898;6.054;2024-01-10T00:17:06;101346.06;;;-7.04;85.09
59825;BME280;45703;50.898;6.054;2024-01-10T00:19:32;101343.75;;;-7.08;84.07
59825;BME280;45703;50.898;6.054;2024-01-10T00:21:58;101335.44;;;-7.15;85.67
59825;BME280;45703;50.898;6.054;2024-01-10T00:24:23;101345.81;;;-7.15;84.79
59825;BME280;45703;50.898;6.054;2024-01-10T00:26:48;101347.66;;;-7.17;84.38
59825;BME280;45703;50.898;6.054;2024-01-10T00:29:14;101345.25;;;-7.20;84.58
59825;BME280;45703;50.898;6.054;2024-01-10T00:31:40;101335.94;;;-7.24;84.63
59825;BME280;45703;50.898;6.054;2024-01-10T00:34:05;101333.78;;;-7.16;85.45
59825;BME280;45703;50.898;6.054;2024-01-10T00:36:30;101341.97;;;-7.08;86.36
59825;BME280;45703;50.898;6.054;2024-01-10T00:38:56;101328.34;;;-7.11;86.50
59825;BME280;45703;50.898;6.054;2024-01-10T00:41:21;101328.59;;;-7.16;85.49
59825;BME280;45703;50.898;6.054;2024-01-10T00:43:46;101325.25;;;-7.18;85.68
59825;BME280;45703;50.898;6.054;2024-01-10T00:46:12;101333.94;;;-7.19;86.66
59825;BME280;45703;50.898;6.054;2024-01-10T00:48:37;101340.44;;;-7.27;85.86
59825;BME280;45703;50.898;6.054;2024-01-10T00:51:02;101330.56;;;-7.36;85.62
59825;BME280;45703;50.898;6.054;2024-01-10T00:53:34;101336.16;;;-7.44;85.33
59825;BME280;45703;50.898;6.054;2024-01-10T00:55:59;101331.41;;;-7.51;85.89
59825;BME280;45703;50.898;6.054;2024-01-10T00:58:24;101335.91;;;-7.55;85.20
59825;BME280;45703;50.898;6.054;2024-01-10T01:00:50;101332.06;;;-7.63;85.69
59825;BME280;45703;50.898;6.054;2024-01-10T01:03:15;101325.59;;;-7.72;86.33
59825;BME280;45703;50.898;6.054;2024-01-10T01:05:40;101324.13;;;-7.77;86.56
59825;BME280;45703;50.898;6.054;2024-01-10T01:08:06;101332.06;;;-7.80;86.88
59825;BME280;45703;50.898;6.054;2024-01-10T01:10:32;101325.63;;;-7.89;86.22
59825;BME280;45703;50.898;6.054;2024-01-10T01:12:57;101330.81;;;-7.89;86.16
59825;BME280;45703;50.898;6.054;2024-01-10T01:15:22;101328.44;;;-7.93;85.50
59825;BME280;45703;50.898;6.054;2024-01-10T01:17:48;101309.72;;;-7.98;85.88
59825;BME280;45703;50.898;6.054;2024-01-10T01:20:13;101328.66;;;-7.98;85.59
59825;BME280;45703;50.898;6.054;2024-01-10T01:22:39;101330.50;;;-8.00;85.93
59825;BME280;45703;50.898;6.054;2024-01-10T01:25:04;101318.63;;;-8.04;86.21
59825;BME280;45703;50.898;6.054;2024-01-10T01:27:30;101313.44;;;-8.04;86.81
59825;BME280;45703;50.898;6.054;2024-01-10T01:29:55;101319.38;;;-8.02;86.57
59825;BME280;45703;50.898;6.054;2024-01-10T01:32:23;101327.00;;;-7.99;87.23
59825;BME280;45703;50.898;6.054;2024-01-10T01:34:49;101311.59;;;-8.02;87.87
59825;BME280;45703;50.898;6.054;2024-01-10T01:37:15;101310.22;;;-7.92;88.83
59825;BME280;45703;50.898;6.054;2024-01-10T01:39:40;101312.59;;;-7.87;90.24
59825;BME280;45703;50.898;6.054;2024-01-10T01:42:05;101309.22;;;-7.89;89.27
59825;BME280;45703;50.898;6.054;2024-01-10T01:44:31;101314.19;;;-7.85;89.63
59825;BME280;45703;50.898;6.054;2024-01-10T01:46:57;101311.44;;;-7.82;88.02
59825;BME280;45703;50.898;6.054;2024-01-10T01:49:23;101321.31;;;-7.73;87.39
59825;BME280;45703;50.898;6.054;2024-01-10T01:51:50;101305.00;;;-7.75;88.31
59825;BME280;45703;50.898;6.054;2024-01-10T01:54:16;101298.41;;;-7.65;88.37
59825;BME280;45703;50.898;6.054;2024-01-10T01:56:43;101308.47;;;-7.59;87.38
59825;BME280;45703;50.898;6.054;2024-01-10T01:59:10;101315.16;;;-7.55;85.92
59825;BME280;45703;50.898;6.054;2024-01-10T02:01:36;101303.63;;;-7.49;88.07
59825;BME280;45703;50.898;6.054;2024-01-10T02:04:02;101310.31;;;-7.45;88.27
59825;BME280;45703;50.898;6.054;2024-01-10T02:06:29;101304.44;;;-7.49;88.15
59825;BME280;45703;50.898;6.054;2024-01-10T02:08:55;101305.78;;;-7.42;88.72
59825;BME280;45703;50.898;6.054;2024-01-10T02:11:21;101301.63;;;-7.44;88.75
59825;BME280;45703;50.898;6.054;2024-01-10T02:13:47;101301.38;;;-7.40;87.51
59825;BME280;45703;50.898;6.054;2024-01-10T02:16:12;101301.97;;;-7.35;87.96
59825;BME280;45703;50.898;6.054;2024-01-10T02:18:38;101304.41;;;-7.32;87.33
59825;BME280;45703;50.898;6.054;2024-01-10T02:21:03;101303.66;;;-7.34;88.08
59825;BME280;45703;50.898;6.054;2024-01-10T02:23:29;101295.13;;;-7.36;87.58
59825;BME280;45703;50.898;6.054;2024-01-10T02:25:54;101310.34;;;-7.30;88.76
59825;BME280;45703;50.898;6.054;2024-01-10T02:28:20;101300.13;;;-7.33;87.92
59825;BME280;45703;50.898;6.054;2024-01-10T02:30:45;101294.09;;;-7.33;87.68
59825;BME280;45703;50.898;6.054;2024-01-10T02:33:12;101288.25;;;-7.37;87.29
59825;BME280;45703;50.898;6.054;2024-01-10T02:35:37;101291.59;;;-7.35;88.48
59825;BME280;45703;50.898;6.054;2024-01-10T02:38:04;101293.44;;;-7.37;88.95
59825;BME280;45703;50.898;6.054;2024-01-10T02:40:29;101286.72;;;-7.41;89.25
59825;BME280;45703;50.898;6.054;2024-01-10T02:42:55;101288.50;;;-7.41;88.47
59825;BME280;45703;50.898;6.054;2024-01-10T02:45:20;101275.53;;;-7.41;88.27
59825;BME280;45703;50.898;6.054;2024-01-10T02:47:46;101283.38;;;-7.43;87.97
59825;BME280;45703;50.898;6.054;2024-01-10T02:50:11;101283.66;;;-7.47;87.51
59825;BME280;45703;50.898;6.054;2024-01-10T02:52:36;101285.56;;;-7.51;87.44
59825;BME280;45703;50.898;6.054;2024-01-10T02:55:02;101282.38;;;-7.56;87.68
59825;BME280;45703;50.898;6.054;2024-01-10T02:57:27;101274.19;;;-7.64;88.75
59825;BME280;45703;50.898;6.054;2024-01-10T02:59:53;101268.31;;;-7.67;89.04
59825;BME280;45703;50.898;6.054;2024-01-10T03:02:18;101277.09;;;-7.70;89.23
59825;BME280;45703;50.898;6.054;2024-01-10T03:04:43;101278.94;;;-7.72;88.66
59825;BME280;45703;50.898;6.054;2024-01-10T03:07:09;101261.28;;;-7.81;89.06
59825;BME280;45703;50.898;6.054;2024-01-10T03:09:35;101269.97;;;-7.82;89.18
59825;BME280;45703;50.898;6.054;2024-01-10T03:12:03;101258.94;;;-7.85;88.91
59825;BME280;45703;50.898;6.054;2024-01-10T03:14:29;101258.94;;;-7.85;87.98
59825;BME280;45703;50.898;6.054;2024-01-10T03:16:54;101268.31;;;-7.83;89.40
59825;BME280;45703;50.898;6.054;2024-01-10T03:19:20;101270.13;;;-7.85;88.98
59825;BME280;45703;50.898;6.054;2024-01-10T03:21:45;101267.56;;;-7.85;90.37
59825;BME280;45703;50.898;6.054;2024-01-10T03:24:11;101261.63;;;-7.87;89.13
59825;BME280;45703;50.898;6.054;2024-01-10T03:26:36;101263.94;;;-7.82;90.43
59825;BME280;45703;50.898;6.054;2024-01-10T03:29:02;101262.97;;;-7.80;90.40
59825;BME280;45703;50.898;6.054;2024-01-10T03:31:29;101255.78;;;-7.75;90.90
59825;BME280;45703;50.898;6.054;2024-01-10T03:33:56;101252.91;;;-7.70;90.69
59825;BME280;45703;50.898;6.054;2024-01-10T03:36:21;101251.41;;;-7.74;89.40
59825;BME280;45703;50.898;6.054;2024-01-10T03:38:47;101253.66;;;-7.68;89.41
59825;BME280;45703;50.898;6.054;2024-01-10T03:41:16;101246.91;;;-7.71;89.39
59825;BME280;45703;50.898;6.054;2024-01-10T03:43:42;101245.25;;;-7.72;91.13
59825;BME280;45703;50.898;6.054;2024-01-10T03:46:08;101238.72;;;-7.79;89.87
59825;BME280;45703;50.898;6.054;2024-01-10T03:48:34;101243.91;;;-7.79;89.41
59825;BME280;45703;50.898;6.054;2024-01-10T03:50:59;101246.06;;;-7.87;88.67
59825;BME280;45703;50.898;6.054;2024-01-10T03:53:25;101236.69;;;-7.89;89.00
59825;BME280;45703;50.898;6.054;2024-01-10T03:55:50;101241.88;;;-7.89;88.52
59825;BME280;45703;50.898;6.054;2024-01-10T03:58:16;101252.16;;;-7.88;87.97
59825;BME280;45703;50.898;6.054;2024-01-10T04:00:41;101250.56;;;-7.90;87.44
59825;BME280;45703;50.898;6.054;2024-01-10T04:03:06;101236.31;;;-7.99;88.49
59825;BME280;45703;50.898;6.054;2024-01-10T04:05:32;101252.31;;;-7.91;90.29
59825;BME280;45703;50.898;6.054;2024-01-10T04:07:57;101237.00;;;-7.95;90.46
59825;BME280;45703;50.898;6.054;2024-01-10T04:10:23;101235.00;;;-7.90;90.13
59825;BME280;45703;50.898;6.054;2024-01-10T04:12:49;101232.59;;;-7.93;90.00
59825;BME280;45703;50.898;6.054;2024-01-10T04:15:15;101242.03;;;-7.92;89.46
59825;BME280;45703;50.898;6.054;2024-01-10T04:17:40;101234.78;;;-7.86;90.91
59825;BME280;45703;50.898;6.054;2024-01-10T04:20:07;101247.75;;;-7.86;90.34
59825;BME280;45703;50.898;6.054;2024-01-10T04:22:33;101238.88;;;-7.82;89.87
59825;BME280;45703;50.898;6.054;2024-01-10T04:24:59;101232.34;;;-7.73;89.78
59825;BME280;45703;50.898;6.054;2024-01-10T04:27:28;101248.25;;;-7.64;90.32
59825;BME280;45703;50.898;6.054;2024-01-10T04:29:53;101244.91;;;-7.66;89.94
59825;BME280;45703;50.898;6.054;2024-01-10T04:32:19;101250.09;;;-7.66;89.52
59825;BME280;45703;50.898;6.054;2024-01-10T04:34:45;101238.06;;;-7.67;89.46
59825;BME280;45703;50.898;6.054;2024-01-10T04:37:10;101231.19;;;-7.68;88.36
59825;BME280;45703;50.898;6.054;2024-01-10T04:39:35;101233.63;;;-7.65;89.53
59825;BME280;45703;50.898;6.054;2024-01-10T04:42:03;101228.03;;;-7.57;90.39
59825;BME280;45703;50.898;6.054;2024-01-10T04:44:29;101232.19;;;-7.55;90.53
59825;BME280;45703;50.898;6.054;2024-01-10T04:46:54;101224.53;;;-7.56;89.91
59825;BME280;45703;50.898;6.054;2024-01-10T04:49:19;101231.69;;;-7.46;88.93
59825;BME280;45703;50.898;6.054;2024-01-10T04:51:46;101229.84;;;-7.44;88.76
59825;BME280;45703;50.898;6.054;2024-01-10T04:54:11;101230.69;;;-7.43;88.86
59825;BME280;45703;50.898;6.054;2024-01-10T04:56:37;101230.19;;;-7.50;88.06
59825;BME280;45703;50.898;6.054;2024-01-10T04:59:03;101236.47;;;-7.54;88.30
59825;BME280;45703;50.898;6.054;2024-01-10T05:01:28;101235.88;;;-7.59;88.34
59825;BME280;45703;50.898;6.054;2024-01-10T05:03:54;101234.22;;;-7.60;88.78
59825;BME280;45703;50.898;6.054;2024-01-10T05:06:21;101229.34;;;-7.66;89.29
59825;BME280;45703;50.898;6.054;2024-01-10T05:08:47;101238.75;;;-7.63;89.90
59825;BME280;45703;50.898;6.054;2024-01-10T05:11:14;101242.31;;;-7.66;89.74
59825;BME280;45703;50.898;6.054;2024-01-10T05:13:40;101237.88;;;-7.64;89.78
59825;BME280;45703;50.898;6.054;2024-01-10T05:16:05;101230.88;;;-7.62;89.84
59825;BME280;45703;50.898;6.054;2024-01-10T05:18:31;101236.72;;;-7.58;89.65
59825;BME280;45703;50.898;6.054;2024-01-10T05:20:57;101235.81;;;-7.57;89.16
59825;BME280;45703;50.898;6.054;2024-01-10T05:23:23;101233.38;;;-7.60;88.50
59825;BME280;45703;50.898;6.054;2024-01-10T05:25:48;101232.38;;;-7.58;89.90
59825;BME280;45703;50.898;6.054;2024-01-10T05:28:14;101238.41;;;-7.57;88.94
59825;BME280;45703;50.898;6.054;2024-01-10T05:30:40;101223.25;;;-7.65;88.60
59825;BME280;45703;50.898;6.054;2024-01-10T05:33:06;101225.84;;;-7.65;89.70
59825;BME280;45703;50.898;6.054;2024-01-10T05:35:31;101231.88;;;-7.64;88.92
59825;BME280;45703;50.898;6.054;2024-01-10T05:37:57;101226.19;;;-7.71;88.57
59825;BME280;45703;50.898;6.054;2024-01-10T05:40:22;101230.97;;;-7.63;90.23
59825;BME280;45703;50.898;6.054;2024-01-10T05:42:48;101227.09;;;-7.72;89.88
59825;BME280;45703;50.898;6.054;2024-01-10T05:45:14;101233.03;;;-7.70;89.66
59825;BME280;45703;50.898;6.054;2024-01-10T05:47:43;101229.69;;;-7.72;88.67
59825;BME280;45703;50.898;6.054;2024-01-10T05:50:08;101226.19;;;-7.71;88.86
59825;BME280;45703;50.898;6.054;2024-01-10T05:52:34;101223.59;;;-7.71;89.44
59825;BME280;45703;50.898;6.054;2024-01-10T05:54:59;101228.50;;;-7.66;89.75
59825;BME280;45703;50.898;6.054;2024-01-10T05:57:27;101232.28;;;-7.72;89.47
59825;BME280;45703;50.898;6.054;2024-01-10T05:59:53;101230.69;;;-7.74;89.69
59825;BME280;45703;50.898;6.054;2024-01-10T06:02:22;101231.53;;;-7.74;88.83
59825;BME280;45703;50.898;6.054;2024-01-10T06:04:47;101218.97;;;-7.81;90.25
59825;BME280;45703;50.898;6.054;2024-01-10T06:07:13;101225.50;;;-7.74;90.30
59825;BME280;45703;50.898;6.054;2024-01-10T06:09:38;101218.91;;;-7.80;90.29
59825;BME280;45703;50.898;6.054;2024-01-10T06:12:05;101212.81;;;-7.79;90.42
59825;BME280;45703;50.898;6.054;2024-01-10T06:14:30;101218.63;;;-7.75;90.46
59825;BME280;45703;50.898;6.054;2024-01-10T06:16:56;101222.16;;;-7.76;90.07
59825;BME280;45703;50.898;6.054;2024-01-10T06:19:24;101215.28;;;-7.77;89.75
59825;BME280;45703;50.898;6.054;2024-01-10T06:21:50;101212.13;;;-7.82;89.86
59825;BME280;45703;50.898;6.054;2024-01-10T06:24:17;101215.81;;;-7.71;89.57
59825;BME280;45703;50.898;6.054;2024-01-10T06:26:42;101207.28;;;-7.73;90.49
59825;BME280;45703;50.898;6.054;2024-01-10T06:29:08;101213.97;;;-7.69;89.69
59825;BME280;45703;50.898;6.054;2024-01-10T06:31:33;101210.03;;;-7.76;89.37
59825;BME280;45703;50.898;6.054;2024-01-10T06:33:59;101210.47;;;-7.68;88.29
59825;BME280;45703;50.898;6.054;2024-01-10T06:36:24;101209.59;;;-7.68;88.46
59825;BME280;45703;50.898;6.054;2024-01-10T06:38:50;101219.84;;;-7.65;88.21
59825;BME280;45703;50.898;6.054;2024-01-10T06:41:15;101215.66;;;-7.68;88.65
59825;BME280;45703;50.898;6.054;2024-01-10T06:43:41;101205.44;;;-7.71;88.63
59825;BME280;45703;50.898;6.054;2024-01-10T06:46:06;101208.63;;;-7.66;88.36
59825;BME280;45703;50.898;6.054;2024-01-10T06:48:32;101209.78;;;-7.71;88.74
59825;BME280;45703;50.898;6.054;2024-01-10T06:50:58;101224.16;;;-7.66;88.87
59825;BME280;45703;50.898;6.054;2024-01-10T06:53:23;101225.69;;;-7.62;89.37
59825;BME280;45703;50.898;6.054;2024-01-10T06:55:49;101216.91;;;-7.59;89.90
59825;BME280;45703;50.898;6.054;2024-01-10T06:58:14;101211.63;;;-7.58;89.91
59825;BME280;45703;50.898;6.054;2024-01-10T07:00:40;101212.53;;;-7.59;89.95
59825;BME280;45703;50.898;6.054;2024-01-10T07:03:05;101212.53;;;-7.59;88.95
59825;BME280;45703;50.898;6.054;2024-01-10T07:05:31;101210.13;;;-7.62;89.65
59825;BME280;45703;50.898;6.054;2024-01-10T07:07:59;101216.97;;;-7.61;89.55
59825;BME280;45703;50.898;6.054;2024-01-10T07:10:31;101223.00;;;-7.60;89.14
59825;BME280;45703;50.898;6.054;2024-01-10T07:12:56;101209.59;;;-7.68;89.44
59825;BME280;45703;50.898;6.054;2024-01-10T07:15:22;101227.50;;;-7.64;89.48
59825;BME280;45703;50.898;6.054;2024-01-10T07:17:48;101226.69;;;-7.64;90.01
59825;BME280;45703;50.898;6.054;2024-01-10T07:20:13;101230.88;;;-7.62;88.77
59825;BME280;45703;50.898;6.054;2024-01-10T07:22:39;101231.19;;;-7.68;88.76
59825;BME280;45703;50.898;6.054;2024-01-10T07:25:07;101231.38;;;-7.71;88.44
59825;BME280;45703;50.898;6.054;2024-01-10T07:27:34;101236.72;;;-7.74;88.35
59825;BME280;45703;50.898;6.054;2024-01-10T07:30:00;101232.44;;;-7.75;88.83
59825;BME280;45703;50.898;6.054;2024-01-10T07:32:25;101242.72;;;-7.73;88.55
59825;BME280;45703;50.898;6.054;2024-01-10T07:34:50;101238.56;;;-7.76;88.66
59825;BME280;45703;50.898;6.054;2024-01-10T07:37:16;101247.41;;;-7.80;88.67
59825;BME280;45703;50.898;6.054;2024-01-10T07:39:46;101239.69;;;-7.81;88.73
59825;BME280;45703;50.898;6.054;2024-01-10T07:42:12;101241.63;;;-7.85;88.90
59825;BME280;45703;50.898;6.054;2024-01-10T07:44:37;101240.88;;;-7.87;88.77
59825;BME280;45703;50.898;6.054;2024-01-10T07:47:02;101243.38;;;-7.85;89.10
59825;BME280;45703;50.898;6.054;2024-01-10T07:49:28;101232.50;;;-7.92;89.33
59825;BME280;45703;50.898;6.054;2024-01-10T07:51:55;101234.31;;;-7.94;89.51
59825;BME280;45703;50.898;6.054;2024-01-10T07:54:20;101242.03;;;-7.92;89.87
59825;BME280;45703;50.898;6.054;2024-01-10T07:56:46;101237.84;;;-7.95;89.90
59825;BME280;45703;50.898;6.054;2024-01-10T07:59:11;101244.69;;;-7.94;89.56
59825;BME280;45703;50.898;6.054;2024-01-10T08:01:40;101241.34;;;-7.96;90.03
59825;BME280;45703;50.898;6.054;2024-01-10T08:04:05;101247.22;;;-7.92;90.79
59825;BME280;45703;50.898;6.054;2024-01-10T08:06:30;101249.41;;;-7.85;89.90
59825;BME280;45703;50.898;6.054;2024-01-10T08:08:56;101250.22;;;-7.84;89.58
59825;BME280;45703;50.898;6.054;2024-01-10T08:11:21;101245.75;;;-7.81;89.79
59825;BME280;45703;50.898;6.054;2024-01-10T08:13:46;101251.75;;;-7.80;90.61
59825;BME280;45703;50.898;6.054;2024-01-10T08:16:12;101259.28;;;-7.76;90.43
59825;BME280;45703;50.898;6.054;2024-01-10T08:18:37;101254.91;;;-7.75;90.88
59825;BME280;45703;50.898;6.054;2024-01-10T08:21:03;101250.75;;;-7.78;90.30
59825;BME280;45703;50.898;6.054;2024-01-10T08:23:29;101260.78;;;-7.72;90.25
59825;BME280;45703;50.898;6.054;2024-01-10T08:25:55;101259.72;;;-7.68;90.06
59825;BME280;45703;50.898;6.054;2024-01-10T08:28:20;101250.25;;;-7.69;90.10
59825;BME280;45703;50.898;6.054;2024-01-10T08:30:46;101251.69;;;-7.63;90.22
59825;BME280;45703;50.898;6.054;2024-01-10T08:33:11;101237.13;;;-7.66;90.29
59825;BME280;45703;50.898;6.054;2024-01-10T08:35:37;101256.28;;;-7.53;90.89
59825;BME280;45703;50.898;6.054;2024-01-10T08:38:04;101250.75;;;-7.47;91.04
59825;BME280;45703;50.898;6.054;2024-01-10T08:40:32;101257.38;;;-7.41;90.58
59825;BME280;45703;50.898;6.054;2024-01-10T08:42:57;101248.44;;;-7.36;91.07
59825;BME280;45703;50.898;6.054;2024-01-10T08:45:22;101245.69;;;-7.33;90.75
59825;BME280;45703;50.898;6.054;2024-01-10T08:47:48;101251.09;;;-7.22;90.73
59825;BME280;45703;50.898;6.054;2024-01-10T08:50:14;101250.94;;;-7.19;90.55
59825;BME280;45703;50.898;6.054;2024-01-10T08:52:39;101258.44;;;-6.99;91.88
59825;BME280;45703;50.898;6.054;2024-01-10T08:55:05;101258.06;;;-6.93;90.55
59825;BME280;45703;50.898;6.054;2024-01-10T08:57:31;101266.13;;;-6.82;91.40
59825;BME280;45703;50.898;6.054;2024-01-10T08:59:56;101259.66;;;-6.75;90.48
59825;BME280;45703;50.898;6.054;2024-01-10T09:02:22;101268.41;;;-6.62;89.38
59825;BME280;45703;50.898;6.054;2024-01-10T09:04:49;101276.41;;;-6.51;89.48
59825;BME280;45703;50.898;6.054;2024-01-10T09:07:14;101269.91;;;-6.44;89.35
59825;BME280;45703;50.898;6.054;2024-01-10T09:09:40;101269.41;;;-6.35;88.72
59825;BME280;45703;50.898;6.054;2024-01-10T09:12:06;101265.72;;;-6.31;88.92
59825;BME280;45703;50.898;6.054;2024-01-10T09:14:31;101268.69;;;-6.23;88.07
59825;BME280;45703;50.898;6.054;2024-01-10T09:16:56;101264.88;;;-6.18;87.72
59825;BME280;45703;50.898;6.054;2024-01-10T09:19:23;101277.59;;;-6.13;87.39
59825;BME280;45703;50.898;6.054;2024-01-10T09:21:49;101272.03;;;-6.07;87.48
59825;BME280;45703;50.898;6.054;2024-01-10T09:24:15;101280.38;;;-6.02;87.39
59825;BME280;45703;50.898;6.054;2024-01-10T09:26:40;101275.19;;;-6.02;86.77
59825;BME280;45703;50.898;6.054;2024-01-10T09:29:06;101278.91;;;-5.92;86.03
59825;BME280;45703;50.898;6.054;2024-01-10T09:31:32;101274.44;;;-5.90;86.02
59825;BME280;45703;50.898;6.054;2024-01-10T09:33:57;101270.00;;;-5.88;85.84
59825;BME280;45703;50.898;6.054;2024-01-10T09:36:23;101259.69;;;-5.90;85.68
59825;BME280;45703;50.898;6.054;2024-01-10T09:38:48;101265.38;;;-5.83;85.29
59825;BME280;45703;50.898;6.054;2024-01-10T09:41:14;101272.06;;;-5.79;85.32
59825;BME280;45703;50.898;6.054;2024-01-10T09:43:40;101275.66;;;-5.82;85.75
59825;BME280;45703;50.898;6.054;2024-01-10T09:46:06;101272.06;;;-5.79;85.55
59825;BME280;45703;50.898;6.054;2024-01-10T09:48:32;101281.88;;;-5.70;85.57
59825;BME280;45703;50.898;6.054;2024-01-10T09:50:58;101279.06;;;-5.68;85.67
59825;BME280;45703;50.898;6.054;2024-01-10T09:53:25;101276.75;;;-5.58;85.62
59825;BME280;45703;50.898;6.054;2024-01-10T09:55:55;101279.59;;;-5.49;85.55
59825;BME280;45703;50.898;6.054;2024-01-10T09:58:23;101279.75;;;-5.38;85.31
59825;BME280;45703;50.898;6.054;2024-01-10T10:00:50;101279.97;;;-5.27;85.38
59825;BME280;45703;50.898;6.054;2024-01-10T10:03:16;101276.38;;;-5.12;84.78
59825;BME280;45703;50.898;6.054;2024-01-10T10:05:43;101275.59;;;-5.00;84.33
59825;BME280;45703;50.898;6.054;2024-01-10T10:08:11;101268.56;;;-4.85;83.02
59825;BME280;45703;50.898;6.054;2024-01-10T10:10:37;101265.91;;;-4.71;83.11
59825;BME280;45703;50.898;6.054;2024-01-10T10:13:08;101273.84;;;-4.60;83.20
59825;BME280;45703;50.898;6.054;2024-01-10T10:15:36;101275.75;;;-4.50;82.86
59825;BME280;45703;50.898;6.054;2024-01-10T10:18:01;101272.00;;;-4.46;81.96
59825;BME280;45703;50.898;6.054;2024-01-10T10:20:31;101269.72;;;-4.38;82.19
59825;BME280;45703;50.898;6.054;2024-01-10T10:23:06;101275.28;;;-4.30;80.21
59825;BME280;45703;50.898;6.054;2024-01-10T10:25:36;101261.72;;;-4.23;80.33
59825;BME280;45703;50.898;6.054;2024-01-10T10:28:04;101267.38;;;-4.16;80.97
59825;BME280;45703;50.898;6.054;2024-01-10T10:30:33;101254.66;;;-4.08;80.21
59825;BME280;45703;50.898;6.054;2024-01-10T10:32:59;101268.72;;;-3.98;79.00
59825;BME280;45703;50.898;6.054;2024-01-10T10:35:24;101267.56;;;-3.94;78.66
59825;BME280;45703;50.898;6.054;2024-01-10T10:37:51;101272.38;;;-3.88;78.51
59825;BME280;45703;50.898;6.054;2024-01-10T10:40:17;101272.28;;;-3.87;77.34
59825;BME280;45703;50.898;6.054;2024-01-10T10:42:55;101270.28;;;-3.83;76.95
59825;BME280;45703;50.898;6.054;2024-01-10T10:45:24;101267.88;;;-3.86;76.68
59825;BME280;45703;50.898;6.054;2024-01-10T10:50:22;101271.03;;;-3.81;78.37
59825;BME280;45703;50.898;6.054;2024-01-10T10:52:49;101260.78;;;-3.84;78.04
59825;BME280;45703;50.898;6.054;2024-01-10T10:55:15;101262.88;;;-3.89;76.67
59825;BME280;45703;50.898;6.054;2024-01-10T10:57:45;101259.53;;;-3.91;75.56
59825;BME280;45703;50.898;6.054;2024-01-10T11:00:17;101257.88;;;-3.92;76.29
59825;BME280;45703;50.898;6.054;2024-01-10T11:02:42;101259.53;;;-3.91;76.09
59825;BME280;45703;50.898;6.054;2024-01-10T11:05:11;101255.38;;;-3.94;76.83
59825;BME280;45703;50.898;6.054;2024-01-10T11:07:41;101260.38;;;-3.91;77.94
59825;BME280;45703;50.898;6.054;2024-01-10T11:10:12;101263.28;;;-3.83;77.21
59825;BME280;45703;50.898;6.054;2024-01-10T11:18:28;101263.09;;;-3.67;76.72
59825;BME280;45703;50.898;6.054;2024-01-10T11:23:43;101266.81;;;-3.59;76.65
59825;BME280;45703;50.898;6.054;2024-01-10T11:26:14;101262.44;;;-3.58;73.92
59825;BME280;45703;50.898;6.054;2024-01-10T11:28:40;101238.88;;;-3.69;75.18
59825;BME280;45703;50.898;6.054;2024-01-10T11:31:07;101246.56;;;-3.55;74.37
59825;BME280;45703;50.898;6.054;2024-01-10T11:33:35;101244.59;;;-3.52;74.98
59825;BME280;45703;50.898;6.054;2024-01-10T11:36:10;101245.19;;;-3.48;75.20
59825;BME280;45703;50.898;6.054;2024-01-10T11:41:35;101253.41;;;-3.29;77.14
59825;BME280;45703;50.898;6.054;2024-01-10T11:46:38;101249.19;;;-3.19;75.98
59825;BME280;45703;50.898;6.054;2024-01-10T11:49:07;101240.63;;;-3.21;75.15
59825;BME280;45703;50.898;6.054;2024-01-10T11:51:32;101231.44;;;-3.27;72.96
59825;BME280;45703;50.898;6.054;2024-01-10T11:53:58;101244.91;;;-3.20;73.28
59825;BME280;45703;50.898;6.054;2024-01-10T11:56:38;101237.28;;;-3.23;75.48
59825;BME280;45703;50.898;6.054;2024-01-10T11:59:06;101239.78;;;-3.22;73.69
59825;BME280;45703;50.898;6.054;2024-01-10T12:01:38;101242.28;;;-3.20;75.01
59825;BME280;45703;50.898;6.054;2024-01-10T12:04:05;101228.41;;;-3.21;72.35
59825;BME280;45703;50.898;6.054;2024-01-10T12:06:32;101235.69;;;-3.13;74.38
59825;BME280;45703;50.898;6.054;2024-01-10T12:08:57;101228.13;;;-3.05;75.64
59825;BME280;45703;50.898;6.054;2024-01-10T12:11:23;101229.84;;;-2.93;74.39
59825;BME280;45703;50.898;6.054;2024-01-10T12:13:48;101225.97;;;-2.88;74.12
59825;BME280;45703;50.898;6.054;2024-01-10T12:16:14;101222.06;;;-2.83;74.87
59825;BME280;45703;50.898;6.054;2024-01-10T12:18:42;101226.97;;;-2.67;75.34
59825;BME280;45703;50.898;6.054;2024-01-10T12:21:08;101219.16;;;-2.56;74.32
59825;BME280;45703;50.898;6.054;2024-01-10T12:23:38;101219.94;;;-2.43;74.78
59825;BME280;45703;50.898;6.054;2024-01-10T12:26:06;101217.59;;;-2.35;74.46
59825;BME280;45703;50.898;6.054;2024-01-10T12:28:34;101220.81;;;-2.21;74.40
59825;BME280;45703;50.898;6.054;2024-01-10T12:33:58;101214.66;;;-1.98;73.05
59825;BME280;45703;50.898;6.054;2024-01-10T12:36:24;101208.00;;;-1.91;73.17
59825;BME280;45703;50.898;6.054;2024-01-10T12:38:50;101203.50;;;-1.78;74.57
59825;BME280;45703;50.898;6.054;2024-01-10T12:41:16;101203.00;;;-1.72;74.19
59825;BME280;45703;50.898;6.054;2024-01-10T12:43:58;101198.25;;;-1.67;73.19
59825;BME280;45703;50.898;6.054;2024-01-10T12:46:25;101205.63;;;-1.61;71.52
59825;BME280;45703;50.898;6.054;2024-01-10T12:49:00;101209.41;;;-1.54;72.73
59825;BME280;45703;50.898;6.054;2024-01-10T12:51:27;101199.03;;;-1.55;71.98
59825;BME280;45703;50.898;6.054;2024-01-10T12:53:55;101212.97;;;-1.44;73.31
59825;BME280;45703;50.898;6.054;2024-01-10T12:56:21;101205.56;;;-1.39;72.31
59825;BME280;45703;50.898;6.054;2024-01-10T12:58:47;101188.19;;;-1.40;69.80
59825;BME280;45703;50.898;6.054;2024-01-10T13:01:12;101195.31;;;-1.31;71.97
59825;BME280;45703;50.898;6.054;2024-01-10T13:03:42;101194.97;;;-1.27;71.31